sensor_id;sensor_type;location;lat;lon;timestamp;temperature;humidity
52941;DHT22;62001;53.366;6.636;2022-12-05T00:01:36;5.10;99.90
52941;DHT22;62001;53.366;6.636;2022-12-05T00:04:05;5.10;99.90
52941;DHT22;62001;53.366;6.636;2022-12-05T00:06:33;5.20;99.90
52941;DHT22;62001;53.366;6.636;2022-12-05T00:08:58;5.20;99.90
52941;DHT22;62001;53.366;6.636;2022-12-05T00:11:27;5.20;99.90
52941;DHT22;62001;53.366;6.636;2022-12-05T00:13:55;5.20;99.90
52941;DHT22;62001;53.366;6.636;2022-12-05T00:16:24;5.10;99.90
52941;DHT22;62001;53.366;6.636;2022-12-05T00:18:50;5.10;99.90
52941;DHT22;62001;53.366;6.636;2022-12-05T00:21:27;5.10;99.90
52941;DHT22;62001;53.366;6.636;2022-12-05T00:23:55;5.10;99.90
52941;DHT22;62001;53.366;6.636;2022-12-05T00:26:21;5.10;99.90
52941;DHT22;62001;53.366;6.636;2022-12-05T00:28:47;5.10;99.90
52941;DHT22;62001;53.366;6.636;2022-12-05T00:31:15;5.20;99.90
52941;DHT22;62001;53.366;6.636;2022-12-05T00:33:42;5.20;99.90
52941;DHT22;62001;53.366;6.636;2022-12-05T00:36:13;5.20;99.90
52941;DHT22;62001;53.366;6.636;2022-12-05T00:38:39;5.20;99.90
52941;DHT22;62001;53.366;6.636;2022-12-05T00:41:25;5.20;99.90
52941;DHT22;62001;53.366;6.636;2022-12-05T00:43:52;5.30;99.90
52941;DHT22;62001;53.366;6.636;2022-12-05T00:46:23;5.30;99.90
52941;DHT22;62001;53.366;6.636;2022-12-05T00:48:51;5.30;99.90
52941;DHT22;62001;53.366;6.636;2022-12-05T00:51:20;5.40;99.90
52941;DHT22;62001;53.366;6.636;2022-12-05T00:53:46;5.40;99.90
52941;DHT22;62001;53.366;6.636;2022-12-05T00:56:15;5.40;99.90
52941;DHT22;62001;53.366;6.636;2022-12-05T00:58:41;5.40;99.90
52941;DHT22;62001;53.366;6.636;2022-12-05T01:03:50;5.50;99.90
52941;DHT22;62001;53.366;6.636;2022-12-05T01:06:16;5.50;99.90
52941;DHT22;62001;53.366;6.636;2022-12-05T01:08:42;5.50;99.90
52941;DHT22;62001;53.366;6.636;2022-12-05T01:11:14;5.50;99.90
52941;DHT22;62001;53.366;6.636;2022-12-05T01:13:40;5.50;99.90
52941;DHT22;62001;53.366;6.636;2022-12-05T01:16:16;5.60;99.90
52941;DHT22;62001;53.366;6.636;2022-12-05T01:18:42;5.60;99.90
52941;DHT22;62001;53.366;6.636;2022-12-05T01:21:08;5.60;99.90
52941;DHT22;62001;53.366;6.636;2022-12-05T01:23:34;5.60;99.90
52941;DHT22;62001;53.366;6.636;2022-12-05T01:25:59;5.60;99.90
52941;DHT22;62001;53.366;6.636;2022-12-05T01:28:29;5.60;99.90
52941;DHT22;62001;53.366;6.636;2022-12-05T01:30:55;5.60;99.90
52941;DHT22;62001;53.366;6.636;2022-12-05T01:33:20;5.60;99.90
52941;DHT22;62001;53.366;6.636;2022-12-05T01:35:46;5.60;99.90
52941;DHT22;62001;53.366;6.636;2022-12-05T01:38:12;5.60;99.90
52941;DHT22;62001;53.366;6.636;2022-12-05T01:40:39;5.60;99.90
52941;DHT22;62001;53.366;6.636;2022-12-05T01:43:12;5.60;99.90
52941;DHT22;62001;53.366;6.636;2022-12-05T01:45:41;5.60;99.90
52941;DHT22;62001;53.366;6.636;2022-12-05T01:48:15;5.60;99.90
52941;DHT22;62001;53.366;6.636;2022-12-05T01:50:43;5.60;99.90
52941;DHT22;62001;53.366;6.636;2022-12-05T01:53:10;5.60;99.90
52941;DHT22;62001;53.366;6.636;2022-12-05T01:55:37;5.60;99.90
52941;DHT22;62001;53.366;6.636;2022-12-05T01:58:04;5.60;99.90
52941;DHT22;62001;53.366;6.636;2022-12-05T02:00:30;5.60;99.90
52941;DHT22;62001;53.366;6.636;2022-12-05T02:03:01;5.60;99.90
52941;DHT22;62001;53.366;6.636;2022-12-05T02:05:31;5.60;99.90
52941;DHT22;62001;53.366;6.636;2022-12-05T02:07:58;5.60;99.90
52941;DHT22;62001;53.366;6.636;2022-12-05T02:10:27;5.60;99.90
52941;DHT22;62001;53.366;6.636;2022-12-05T02:12:58;5.60;99.90
52941;DHT22;62001;53.366;6.636;2022-12-05T02:27:05;5.60;99.90
52941;DHT22;62001;53.366;6.636;2022-12-05T02:29:59;5.60;99.90
52941;DHT22;62001;53.366;6.636;2022-12-05T02:37:53;5.60;99.90
52941;DHT22;62001;53.366;6.636;2022-12-05T02:40:29;5.60;99.90
52941;DHT22;62001;53.366;6.636;2022-12-05T02:42:59;5.60;99.90
52941;DHT22;62001;53.366;6.636;2022-12-05T02:45:28;5.60;99.90
52941;DHT22;62001;53.366;6.636;2022-12-05T02:47:56;5.60;99.90
52941;DHT22;62001;53.366;6.636;2022-12-05T02:50:33;5.60;99.90
52941;DHT22;62001;53.366;6.636;2022-12-05T02:53:03;5.60;99.90
52941;DHT22;62001;53.366;6.636;2022-12-05T02:55:31;5.60;99.90
52941;DHT22;62001;53.366;6.636;2022-12-05T02:58:04;5.60;99.90
52941;DHT22;62001;53.366;6.636;2022-12-05T03:00:30;5.60;99.90
52941;DHT22;62001;53.366;6.636;2022-12-05T03:02:57;5.60;99.90
52941;DHT22;62001;53.366;6.636;2022-12-05T03:08:20;5.60;99.90
52941;DHT22;62001;53.366;6.636;2022-12-05T03:10:49;5.60;99.90
52941;DHT22;62001;53.366;6.636;2022-12-05T03:13:21;5.60;99.90
52941;DHT22;62001;53.366;6.636;2022-12-05T03:15:53;5.60;99.90
52941;DHT22;62001;53.366;6.636;2022-12-05T03:18:27;5.60;99.90
52941;DHT22;62001;53.366;6.636;2022-12-05T03:21:24;5.60;99.90
52941;DHT22;62001;53.366;6.636;2022-12-05T03:24:12;5.60;99.90
52941;DHT22;62001;53.366;6.636;2022-12-05T03:32:23;5.60;99.90
52941;DHT22;62001;53.366;6.636;2022-12-05T03:35:17;5.60;99.90
52941;DHT22;62001;53.366;6.636;2022-12-05T03:37:56;5.60;99.90
52941;DHT22;62001;53.366;6.636;2022-12-05T03:40:33;5.60;99.90
52941;DHT22;62001;53.366;6.636;2022-12-05T03:45:48;5.60;99.90
52941;DHT22;62001;53.366;6.636;2022-12-05T03:50:51;5.60;99.90
52941;DHT22;62001;53.366;6.636;2022-12-05T03:53:28;5.60;99.90
52941;DHT22;62001;53.366;6.636;2022-12-05T03:56:11;5.60;99.90
52941;DHT22;62001;53.366;6.636;2022-12-05T03:58:44;5.60;99.90
52941;DHT22;62001;53.366;6.636;2022-12-05T04:01:13;5.60;99.90
52941;DHT22;62001;53.366;6.636;2022-12-05T04:03:45;5.60;99.90
52941;DHT22;62001;53.366;6.636;2022-12-05T04:08:57;5.60;99.90
52941;DHT22;62001;53.366;6.636;2022-12-05T04:11:27;5.60;99.90
52941;DHT22;62001;53.366;6.636;2022-12-05T04:14:10;5.50;99.90
52941;DHT22;62001;53.366;6.636;2022-12-05T04:16:44;5.50;99.90
52941;DHT22;62001;53.366;6.636;2022-12-05T04:22:33;5.60;99.90
52941;DHT22;62001;53.366;6.636;2022-12-05T04:25:01;5.60;99.90
52941;DHT22;62001;53.366;6.636;2022-12-05T04:28:00;5.60;99.90
52941;DHT22;62001;53.366;6.636;2022-12-05T04:30:42;5.50;99.90
52941;DHT22;62001;53.366;6.636;2022-12-05T04:36:19;5.60;99.90
52941;DHT22;62001;53.366;6.636;2022-12-05T04:39:02;5.60;99.90
52941;DHT22;62001;53.366;6.636;2022-12-05T04:41:35;5.60;99.90
52941;DHT22;62001;53.366;6.636;2022-12-05T04:44:06;5.60;99.90
52941;DHT22;62001;53.366;6.636;2022-12-05T04:46:34;5.60;99.90
52941;DHT22;62001;53.366;6.636;2022-12-05T04:49:01;5.60;99.90
52941;DHT22;62001;53.366;6.636;2022-12-05T04:51:31;5.60;99.90
52941;DHT22;62001;53.366;6.636;2022-12-05T04:54:08;5.60;99.90
52941;DHT22;62001;53.366;6.636;2022-12-05T04:56:40;5.60;99.90
52941;DHT22;62001;53.366;6.636;2022-12-05T04:59:07;5.60;99.90
52941;DHT22;62001;53.366;6.636;2022-12-05T05:01:40;5.60;99.90
52941;DHT22;62001;53.366;6.636;2022-12-05T05:04:11;5.60;99.90
52941;DHT22;62001;53.366;6.636;2022-12-05T05:06:40;5.60;99.90
52941;DHT22;62001;53.366;6.636;2022-12-05T05:09:06;5.60;99.90
52941;DHT22;62001;53.366;6.636;2022-12-05T05:11:33;5.60;99.90
52941;DHT22;62001;53.366;6.636;2022-12-05T05:14:00;5.60;99.90
52941;DHT22;62001;53.366;6.636;2022-12-05T05:16:33;5.60;99.90
52941;DHT22;62001;53.366;6.636;2022-12-05T05:18:59;5.60;99.90
52941;DHT22;62001;53.366;6.636;2022-12-05T05:21:35;5.50;99.90
52941;DHT22;62001;53.366;6.636;2022-12-05T05:24:02;5.60;99.90
52941;DHT22;62001;53.366;6.636;2022-12-05T05:26:29;5.60;99.90
52941;DHT22;62001;53.366;6.636;2022-12-05T05:28:57;5.60;99.90
52941;DHT22;62001;53.366;6.636;2022-12-05T05:31:23;5.60;99.90
52941;DHT22;62001;53.366;6.636;2022-12-05T05:33:50;5.50;99.90
52941;DHT22;62001;53.366;6.636;2022-12-05T05:36:16;5.60;99.90
52941;DHT22;62001;53.366;6.636;2022-12-05T05:38:44;5.50;99.90
52941;DHT22;62001;53.366;6.636;2022-12-05T05:41:15;5.50;99.90
52941;DHT22;62001;53.366;6.636;2022-12-05T05:43:41;5.50;99.90
52941;DHT22;62001;53.366;6.636;2022-12-05T05:46:07;5.50;99.90
52941;DHT22;62001;53.366;6.636;2022-12-05T05:48:33;5.50;99.90
52941;DHT22;62001;53.366;6.636;2022-12-05T05:51:00;5.50;99.90
52941;DHT22;62001;53.366;6.636;2022-12-05T05:53:27;5.50;99.90
52941;DHT22;62001;53.366;6.636;2022-12-05T05:55:53;5.50;99.90
52941;DHT22;62001;53.366;6.636;2022-12-05T05:58:18;5.50;99.90
52941;DHT22;62001;53.366;6.636;2022-12-05T06:00:44;5.50;99.90
52941;DHT22;62001;53.366;6.636;2022-12-05T06:03:10;5.50;99.90
52941;DHT22;62001;53.366;6.636;2022-12-05T06:05:36;5.60;99.90
52941;DHT22;62001;53.366;6.636;2022-12-05T06:08:02;5.50;99.90
52941;DHT22;62001;53.366;6.636;2022-12-05T06:10:28;5.50;99.90
52941;DHT22;62001;53.366;6.636;2022-12-05T06:12:57;5.50;99.90
52941;DHT22;62001;53.366;6.636;2022-12-05T06:15:24;5.60;99.90
52941;DHT22;62001;53.366;6.636;2022-12-05T06:17:50;5.60;99.90
52941;DHT22;62001;53.366;6.636;2022-12-05T06:20:16;5.60;99.90
52941;DHT22;62001;53.366;6.636;2022-12-05T06:22:42;5.60;99.90
52941;DHT22;62001;53.366;6.636;2022-12-05T06:25:08;5.60;99.90
52941;DHT22;62001;53.366;6.636;2022-12-05T06:27:35;5.60;99.90
52941;DHT22;62001;53.366;6.636;2022-12-05T06:30:01;5.60;99.90
52941;DHT22;62001;53.366;6.636;2022-12-05T06:32:27;5.60;99.90
52941;DHT22;62001;53.366;6.636;2022-12-05T06:34:54;5.60;99.90
52941;DHT22;62001;53.366;6.636;2022-12-05T06:37:20;5.60;99.90
52941;DHT22;62001;53.366;6.636;2022-12-05T06:39:46;5.60;99.90
52941;DHT22;62001;53.366;6.636;2022-12-05T06:42:12;5.60;99.90
52941;DHT22;62001;53.366;6.636;2022-12-05T06:44:38;5.70;99.90
52941;DHT22;62001;53.366;6.636;2022-12-05T06:47:03;5.60;99.90
52941;DHT22;62001;53.366;6.636;2022-12-05T06:49:29;5.70;99.90
52941;DHT22;62001;53.366;6.636;2022-12-05T06:52:00;5.70;99.90
52941;DHT22;62001;53.366;6.636;2022-12-05T06:54:26;5.70;99.90
52941;DHT22;62001;53.366;6.636;2022-12-05T06:56:51;5.70;99.90
52941;DHT22;62001;53.366;6.636;2022-12-05T06:59:17;5.70;99.90
52941;DHT22;62001;53.366;6.636;2022-12-05T07:01:43;5.70;99.90
52941;DHT22;62001;53.366;6.636;2022-12-05T07:04:15;5.70;99.90
52941;DHT22;62001;53.366;6.636;2022-12-05T07:06:41;5.70;99.90
52941;DHT22;62001;53.366;6.636;2022-12-05T07:09:08;5.70;99.90
52941;DHT22;62001;53.366;6.636;2022-12-05T07:11:34;5.70;99.90
52941;DHT22;62001;53.366;6.636;2022-12-05T07:14:01;5.70;99.90
52941;DHT22;62001;53.366;6.636;2022-12-05T07:16:27;5.70;99.90
52941;DHT22;62001;53.366;6.636;2022-12-05T07:18:53;5.70;99.90
52941;DHT22;62001;53.366;6.636;2022-12-05T07:21:19;5.70;99.90
52941;DHT22;62001;53.366;6.636;2022-12-05T07:23:47;5.70;99.90
52941;DHT22;62001;53.366;6.636;2022-12-05T07:26:19;5.70;99.90
52941;DHT22;62001;53.366;6.636;2022-12-05T07:28:46;5.70;99.90
52941;DHT22;62001;53.366;6.636;2022-12-05T07:31:15;5.70;99.90
52941;DHT22;62001;53.366;6.636;2022-12-05T07:33:42;5.70;99.90
52941;DHT22;62001;53.366;6.636;2022-12-05T07:36:10;5.70;99.90
52941;DHT22;62001;53.366;6.636;2022-12-05T07:38:37;5.70;99.90
52941;DHT22;62001;53.366;6.636;2022-12-05T07:41:25;5.70;99.90
52941;DHT22;62001;53.366;6.636;2022-12-05T07:43:52;5.70;99.90
52941;DHT22;62001;53.366;6.636;2022-12-05T07:46:18;5.70;99.90
52941;DHT22;62001;53.366;6.636;2022-12-05T07:48:44;5.70;99.90
52941;DHT22;62001;53.366;6.636;2022-12-05T07:51:11;5.70;99.90
52941;DHT22;62001;53.366;6.636;2022-12-05T07:53:38;5.70;99.90
52941;DHT22;62001;53.366;6.636;2022-12-05T07:56:07;5.70;99.90
52941;DHT22;62001;53.366;6.636;2022-12-05T07:58:33;5.70;99.90
52941;DHT22;62001;53.366;6.636;2022-12-05T08:01:08;5.70;99.90
52941;DHT22;62001;53.366;6.636;2022-12-05T08:03:34;5.70;99.90
52941;DHT22;62001;53.366;6.636;2022-12-05T08:06:07;5.70;99.90
52941;DHT22;62001;53.366;6.636;2022-12-05T08:08:33;5.70;99.90
52941;DHT22;62001;53.366;6.636;2022-12-05T08:11:14;5.60;99.90
52941;DHT22;62001;53.366;6.636;2022-12-05T08:13:40;5.70;99.90
52941;DHT22;62001;53.366;6.636;2022-12-05T08:16:09;5.70;99.90
52941;DHT22;62001;53.366;6.636;2022-12-05T08:18:35;5.60;99.90
52941;DHT22;62001;53.366;6.636;2022-12-05T08:21:06;5.60;99.90
52941;DHT22;62001;53.366;6.636;2022-12-05T08:23:33;5.60;99.90
52941;DHT22;62001;53.366;6.636;2022-12-05T08:26:05;5.70;99.90
52941;DHT22;62001;53.366;6.636;2022-12-05T08:28:32;5.60;99.90
52941;DHT22;62001;53.366;6.636;2022-12-05T08:31:05;5.60;99.90
52941;DHT22;62001;53.366;6.636;2022-12-05T08:33:31;5.60;99.90
52941;DHT22;62001;53.366;6.636;2022-12-05T08:36:00;5.60;99.90
52941;DHT22;62001;53.366;6.636;2022-12-05T08:38:27;5.70;99.90
52941;DHT22;62001;53.366;6.636;2022-12-05T08:40:52;5.70;99.90
52941;DHT22;62001;53.366;6.636;2022-12-05T08:43:18;5.70;99.90
52941;DHT22;62001;53.366;6.636;2022-12-05T08:45:53;5.70;99.90
52941;DHT22;62001;53.366;6.636;2022-12-05T08:48:18;5.70;99.90
52941;DHT22;62001;53.366;6.636;2022-12-05T08:50:45;5.70;99.90
52941;DHT22;62001;53.366;6.636;2022-12-05T08:53:10;5.70;99.90
52941;DHT22;62001;53.366;6.636;2022-12-05T08:55:36;5.70;99.90
52941;DHT22;62001;53.366;6.636;2022-12-05T08:58:03;5.70;99.90
52941;DHT22;62001;53.366;6.636;2022-12-05T09:00:29;5.70;99.90
52941;DHT22;62001;53.366;6.636;2022-12-05T09:02:54;5.70;99.90
52941;DHT22;62001;53.366;6.636;2022-12-05T09:05:22;5.70;99.90
52941;DHT22;62001;53.366;6.636;2022-12-05T09:07:48;5.70;99.90
52941;DHT22;62001;53.366;6.636;2022-12-05T09:10:14;5.70;99.90
52941;DHT22;62001;53.366;6.636;2022-12-05T09:12:39;5.70;99.90
52941;DHT22;62001;53.366;6.636;2022-12-05T09:15:06;5.70;99.90
52941;DHT22;62001;53.366;6.636;2022-12-05T09:17:33;5.70;99.90
52941;DHT22;62001;53.366;6.636;2022-12-05T09:19:59;5.70;99.90
52941;DHT22;62001;53.366;6.636;2022-12-05T09:22:24;5.70;99.90
52941;DHT22;62001;53.366;6.636;2022-12-05T09:24:50;5.70;99.90
52941;DHT22;62001;53.366;6.636;2022-12-05T09:27:16;5.80;99.90
52941;DHT22;62001;53.366;6.636;2022-12-05T09:29:42;5.80;99.90
52941;DHT22;62001;53.366;6.636;2022-12-05T09:32:08;5.80;99.90
52941;DHT22;62001;53.366;6.636;2022-12-05T09:34:36;5.80;99.90
52941;DHT22;62001;53.366;6.636;2022-12-05T09:37:06;5.80;99.90
52941;DHT22;62001;53.366;6.636;2022-12-05T09:39:33;5.80;99.90
52941;DHT22;62001;53.366;6.636;2022-12-05T09:45:04;5.80;99.90
52941;DHT22;62001;53.366;6.636;2022-12-05T09:50:25;5.80;99.90
52941;DHT22;62001;53.366;6.636;2022-12-05T09:53:05;5.80;99.90
52941;DHT22;62001;53.366;6.636;2022-12-05T09:58:41;5.80;99.90
52941;DHT22;62001;53.366;6.636;2022-12-05T10:13:01;5.70;99.90
52941;DHT22;62001;53.366;6.636;2022-12-05T10:15:34;5.70;99.90
52941;DHT22;62001;53.366;6.636;2022-12-05T10:18:40;5.70;99.90
52941;DHT22;62001;53.366;6.636;2022-12-05T10:23:45;5.70;99.90
52941;DHT22;62001;53.366;6.636;2022-12-05T10:26:15;5.70;99.90
52941;DHT22;62001;53.366;6.636;2022-12-05T10:31:29;5.70;99.90
52941;DHT22;62001;53.366;6.636;2022-12-05T10:34:09;5.70;99.90
52941;DHT22;62001;53.366;6.636;2022-12-05T10:36:37;5.60;99.90
52941;DHT22;62001;53.366;6.636;2022-12-05T10:39:03;5.60;99.90
52941;DHT22;62001;53.366;6.636;2022-12-05T10:41:28;5.60;99.90
52941;DHT22;62001;53.366;6.636;2022-12-05T10:43:55;5.60;99.90
52941;DHT22;62001;53.366;6.636;2022-12-05T10:46:23;5.70;99.90
52941;DHT22;62001;53.366;6.636;2022-12-05T10:48:49;5.70;99.90
52941;DHT22;62001;53.366;6.636;2022-12-05T10:51:25;5.70;99.90
52941;DHT22;62001;53.366;6.636;2022-12-05T10:53:52;5.70;99.90
52941;DHT22;62001;53.366;6.636;2022-12-05T10:56:42;5.70;99.90
52941;DHT22;62001;53.366;6.636;2022-12-05T10:59:14;5.70;99.90
52941;DHT22;62001;53.366;6.636;2022-12-05T11:01:57;5.70;99.90
52941;DHT22;62001;53.366;6.636;2022-12-05T11:04:28;5.70;99.90
52941;DHT22;62001;53.366;6.636;2022-12-05T11:09:30;5.70;99.90
52941;DHT22;62001;53.366;6.636;2022-12-05T11:14:34;5.70;99.90
52941;DHT22;62001;53.366;6.636;2022-12-05T11:17:02;5.70;99.90
52941;DHT22;62001;53.366;6.636;2022-12-05T11:19:36;5.70;99.90
52941;DHT22;62001;53.366;6.636;2022-12-05T11:22:04;5.70;99.90
52941;DHT22;62001;53.366;6.636;2022-12-05T11:24:35;5.70;99.90
52941;DHT22;62001;53.366;6.636;2022-12-05T11:29:44;5.70;99.90
52941;DHT22;62001;53.366;6.636;2022-12-05T11:32:23;5.70;99.90
52941;DHT22;62001;53.366;6.636;2022-12-05T11:37:59;5.60;99.90
52941;DHT22;62001;53.366;6.636;2022-12-05T11:40:28;5.60;99.90
52941;DHT22;62001;53.366;6.636;2022-12-05T11:48:43;5.60;99.90
52941;DHT22;62001;53.366;6.636;2022-12-05T11:54:25;5.50;99.90
52941;DHT22;62001;53.366;6.636;2022-12-05T11:57:23;5.50;99.90
52941;DHT22;62001;53.366;6.636;2022-12-05T11:59:52;5.50;99.90
52941;DHT22;62001;53.366;6.636;2022-12-05T12:08:22;5.50;99.90
52941;DHT22;62001;53.366;6.636;2022-12-05T12:19:01;5.50;99.90
52941;DHT22;62001;53.366;6.636;2022-12-05T12:27:14;5.60;99.90
52941;DHT22;62001;53.366;6.636;2022-12-05T12:40:50;5.60;99.90
52941;DHT22;62001;53.366;6.636;2022-12-05T12:48:57;5.50;99.90
52941;DHT22;62001;53.366;6.636;2022-12-05T12:51:30;5.60;99.90
52941;DHT22;62001;53.366;6.636;2022-12-05T12:56:56;5.60;99.90
52941;DHT22;62001;53.366;6.636;2022-12-05T13:01:57;5.60;99.90
52941;DHT22;62001;53.366;6.636;2022-12-05T13:04:31;5.60;99.90
52941;DHT22;62001;53.366;6.636;2022-12-05T13:09:54;5.60;99.90
52941;DHT22;62001;53.366;6.636;2022-12-05T13:12:24;5.60;99.90
52941;DHT22;62001;53.366;6.636;2022-12-05T13:15:04;5.60;99.90
52941;DHT22;62001;53.366;6.636;2022-12-05T13:17:31;5.60;99.90
52941;DHT22;62001;53.366;6.636;2022-12-05T13:19:59;5.50;99.90
52941;DHT22;62001;53.366;6.636;2022-12-05T13:22:26;5.50;99.90
52941;DHT22;62001;53.366;6.636;2022-12-05T13:24:54;5.50;99.90
52941;DHT22;62001;53.366;6.636;2022-12-05T13:27:24;5.50;99.90
52941;DHT22;62001;53.366;6.636;2022-12-05T13:29:58;5.50;99.90
52941;DHT22;62001;53.366;6.636;2022-12-05T13:32:36;5.50;99.90
52941;DHT22;62001;53.366;6.636;2022-12-05T13:35:20;5.50;99.90
52941;DHT22;62001;53.366;6.636;2022-12-05T13:38:28;5.50;99.90
52941;DHT22;62001;53.366;6.636;2022-12-05T13:41:13;5.50;99.90
52941;DHT22;62001;53.366;6.636;2022-12-05T13:43:59;5.50;99.90
52941;DHT22;62001;53.366;6.636;2022-12-05T13:46:29;5.50;99.90
52941;DHT22;62001;53.366;6.636;2022-12-05T13:49:18;5.50;99.90
52941;DHT22;62001;53.366;6.636;2022-12-05T13:51:45;5.50;99.90
52941;DHT22;62001;53.366;6.636;2022-12-05T13:54:26;5.50;99.90
52941;DHT22;62001;53.366;6.636;2022-12-05T13:57:01;5.50;99.90
52941;DHT22;62001;53.366;6.636;2022-12-05T14:07:50;5.40;99.90
52941;DHT22;62001;53.366;6.636;2022-12-05T14:13:01;5.40;99.90
52941;DHT22;62001;53.366;6.636;2022-12-05T14:15:40;5.40;99.90
52941;DHT22;62001;53.366;6.636;2022-12-05T14:21:07;5.40;99.90
52941;DHT22;62001;53.366;6.636;2022-12-05T14:23:54;5.40;99.90
52941;DHT22;62001;53.366;6.636;2022-12-05T14:36:54;5.30;99.90
52941;DHT22;62001;53.366;6.636;2022-12-05T14:39:32;5.30;99.90
52941;DHT22;62001;53.366;6.636;2022-12-05T14:42:02;5.30;99.90
52941;DHT22;62001;53.366;6.636;2022-12-05T14:44:29;5.30;99.90
52941;DHT22;62001;53.366;6.636;2022-12-05T14:47:02;5.30;99.90
52941;DHT22;62001;53.366;6.636;2022-12-05T14:52:24;5.30;99.90
52941;DHT22;62001;53.366;6.636;2022-12-05T14:54:53;5.30;99.90
52941;DHT22;62001;53.366;6.636;2022-12-05T14:57:20;5.30;99.90
52941;DHT22;62001;53.366;6.636;2022-12-05T14:59:54;5.30;99.90
52941;DHT22;62001;53.366;6.636;2022-12-05T15:02:33;5.30;99.90
52941;DHT22;62001;53.366;6.636;2022-12-05T15:05:29;5.20;99.90
52941;DHT22;62001;53.366;6.636;2022-12-05T15:07:57;5.30;99.90
52941;DHT22;62001;53.366;6.636;2022-12-05T15:13:02;5.30;99.90
52941;DHT22;62001;53.366;6.636;2022-12-05T15:20:57;5.30;99.90
52941;DHT22;62001;53.366;6.636;2022-12-05T15:23:46;5.30;99.90
52941;DHT22;62001;53.366;6.636;2022-12-05T15:26:22;5.30;99.90
52941;DHT22;62001;53.366;6.636;2022-12-05T15:34:35;5.30;99.90
52941;DHT22;62001;53.366;6.636;2022-12-05T15:37:15;5.30;99.90
52941;DHT22;62001;53.366;6.636;2022-12-05T15:39:59;5.30;99.90
52941;DHT22;62001;53.366;6.636;2022-12-05T15:42:29;5.30;99.90
52941;DHT22;62001;53.366;6.636;2022-12-05T15:47:45;5.30;99.90
52941;DHT22;62001;53.366;6.636;2022-12-05T15:51:05;5.30;99.90
52941;DHT22;62001;53.366;6.636;2022-12-05T15:53:34;5.30;99.90
52941;DHT22;62001;53.366;6.636;2022-12-05T15:56:12;5.30;99.90
52941;DHT22;62001;53.366;6.636;2022-12-05T15:58:40;5.30;99.90
52941;DHT22;62001;53.366;6.636;2022-12-05T16:01:11;5.30;99.90
52941;DHT22;62001;53.366;6.636;2022-12-05T16:06:34;5.30;99.90
52941;DHT22;62001;53.366;6.636;2022-12-05T16:09:07;5.30;99.90
52941;DHT22;62001;53.366;6.636;2022-12-05T16:11:34;5.30;99.90
52941;DHT22;62001;53.366;6.636;2022-12-05T16:14:02;5.30;99.90
52941;DHT22;62001;53.366;6.636;2022-12-05T16:16:33;5.30;99.90
52941;DHT22;62001;53.366;6.636;2022-12-05T16:19:04;5.30;99.90
52941;DHT22;62001;53.366;6.636;2022-12-05T16:21:36;5.20;99.90
52941;DHT22;62001;53.366;6.636;2022-12-05T16:24:15;5.30;99.90
52941;DHT22;62001;53.366;6.636;2022-12-05T16:26:42;5.30;99.90
52941;DHT22;62001;53.366;6.636;2022-12-05T16:29:28;5.30;99.90
52941;DHT22;62001;53.366;6.636;2022-12-05T16:31:56;5.30;99.90
52941;DHT22;62001;53.366;6.636;2022-12-05T16:34:23;5.30;99.90
52941;DHT22;62001;53.366;6.636;2022-12-05T16:36:52;5.30;99.90
52941;DHT22;62001;53.366;6.636;2022-12-05T16:39:19;5.30;99.90
52941;DHT22;62001;53.366;6.636;2022-12-05T16:41:46;5.30;99.90
52941;DHT22;62001;53.366;6.636;2022-12-05T16:47:22;5.30;99.90
52941;DHT22;62001;53.366;6.636;2022-12-05T16:49:49;5.30;99.90
52941;DHT22;62001;53.366;6.636;2022-12-05T16:52:15;5.20;99.90
52941;DHT22;62001;53.366;6.636;2022-12-05T16:54:43;5.30;99.90
52941;DHT22;62001;53.366;6.636;2022-12-05T16:57:12;5.30;99.90
52941;DHT22;62001;53.366;6.636;2022-12-05T16:59:39;5.30;99.90
52941;DHT22;62001;53.366;6.636;2022-12-05T17:02:12;5.30;99.90
52941;DHT22;62001;53.366;6.636;2022-12-05T17:04:38;5.30;99.90
52941;DHT22;62001;53.366;6.636;2022-12-05T17:07:04;5.30;99.90
52941;DHT22;62001;53.366;6.636;2022-12-05T17:09:30;5.30;99.90
52941;DHT22;62001;53.366;6.636;2022-12-05T17:12:04;5.30;99.90
52941;DHT22;62001;53.366;6.636;2022-12-05T17:14:31;5.30;99.90
52941;DHT22;62001;53.366;6.636;2022-12-05T17:16:57;5.30;99.90
52941;DHT22;62001;53.366;6.636;2022-12-05T17:19:23;5.30;99.90
52941;DHT22;62001;53.366;6.636;2022-12-05T17:21:49;5.30;99.90
52941;DHT22;62001;53.366;6.636;2022-12-05T17:24:16;5.30;99.90
52941;DHT22;62001;53.366;6.636;2022-12-05T17:26:42;5.30;99.90
52941;DHT22;62001;53.366;6.636;2022-12-05T17:29:08;5.30;99.90
52941;DHT22;62001;53.366;6.636;2022-12-05T17:31:35;5.30;99.90
52941;DHT22;62001;53.366;6.636;2022-12-05T17:34:01;5.40;99.90
52941;DHT22;62001;53.366;6.636;2022-12-05T17:36:27;5.40;99.90
52941;DHT22;62001;53.366;6.636;2022-12-05T17:38:53;5.40;99.90
52941;DHT22;62001;53.366;6.636;2022-12-05T17:41:21;5.40;99.90
52941;DHT22;62001;53.366;6.636;2022-12-05T17:43:47;5.40;99.90
52941;DHT22;62001;53.366;6.636;2022-12-05T17:46:21;5.40;99.90
52941;DHT22;62001;53.366;6.636;2022-12-05T17:48:49;5.40;99.90
52941;DHT22;62001;53.366;6.636;2022-12-05T17:51:15;5.40;99.90
52941;DHT22;62001;53.366;6.636;2022-12-05T17:53:42;5.40;99.90
52941;DHT22;62001;53.366;6.636;2022-12-05T17:56:09;5.40;99.90
52941;DHT22;62001;53.366;6.636;2022-12-05T17:58:35;5.40;99.90
52941;DHT22;62001;53.366;6.636;2022-12-05T18:01:01;5.40;99.90
52941;DHT22;62001;53.366;6.636;2022-12-05T18:03:27;5.40;99.90
52941;DHT22;62001;53.366;6.636;2022-12-05T18:05:53;5.40;99.90
52941;DHT22;62001;53.366;6.636;2022-12-05T18:08:20;5.40;99.90
52941;DHT22;62001;53.366;6.636;2022-12-05T18:10:47;5.40;99.90
52941;DHT22;62001;53.366;6.636;2022-12-05T18:13:14;5.40;99.90
52941;DHT22;62001;53.366;6.636;2022-12-05T18:15:40;5.40;99.90
52941;DHT22;62001;53.366;6.636;2022-12-05T18:18:06;5.30;99.90
52941;DHT22;62001;53.366;6.636;2022-12-05T18:20:34;5.30;99.90
52941;DHT22;62001;53.366;6.636;2022-12-05T18:23:00;5.40;99.90
52941;DHT22;62001;53.366;6.636;2022-12-05T18:25:27;5.40;99.90
52941;DHT22;62001;53.366;6.636;2022-12-05T18:27:53;5.40;99.90
52941;DHT22;62001;53.366;6.636;2022-12-05T18:30:19;5.30;99.90
52941;DHT22;62001;53.366;6.636;2022-12-05T18:32:45;5.40;99.90
52941;DHT22;62001;53.366;6.636;2022-12-05T18:35:11;5.40;99.90
52941;DHT22;62001;53.366;6.636;2022-12-05T18:37:37;5.30;99.90
52941;DHT22;62001;53.366;6.636;2022-12-05T18:40:08;5.40;99.90
52941;DHT22;62001;53.366;6.636;2022-12-05T18:42:34;5.40;99.90
52941;DHT22;62001;53.366;6.636;2022-12-05T18:45:01;5.40;99.90
52941;DHT22;62001;53.366;6.636;2022-12-05T18:47:27;5.40;99.90
52941;DHT22;62001;53.366;6.636;2022-12-05T18:49:53;5.30;99.90
52941;DHT22;62001;53.366;6.636;2022-12-05T18:52:18;5.30;99.90
52941;DHT22;62001;53.366;6.636;2022-12-05T18:54:44;5.40;99.90
52941;DHT22;62001;53.366;6.636;2022-12-05T18:57:10;5.40;99.90
52941;DHT22;62001;53.366;6.636;2022-12-05T18:59:36;5.40;99.90
52941;DHT22;62001;53.366;6.636;2022-12-05T19:02:02;5.40;99.90
52941;DHT22;62001;53.366;6.636;2022-12-05T19:04:29;5.40;99.90
52941;DHT22;62001;53.366;6.636;2022-12-05T19:06:57;5.40;99.90